EGGD

Bristol International Airport

Bristol, United Kingdom
METAR EGGD 260250Z AUTO 05012KT 9999 NCD M04/M07 Q1029
Observed Flight Rules
Feb-26 @ 02:50 UTC (32 minutes ago) Visual Flight Rules
Wind Visibility Clouds
50° at 12 knots 10,000+ meters
  • Clear skies
Temperatures Readings
Current -4°C / 25°F
Dewpoint -7°C / 19°F
Humidity 80%
Altimeter 30.38" Hg
Pressure 1029 hPa
Elevation 189
METAR EGGD 260250Z AUTO 05012KT 9999 NCD M04/M07 Q1029
Observed Flight Rules
Feb-26 @ 02:50 UTC
(32 minutes ago)
VFR
Wind Visibility
50° at 12 knots 10,000+ meters
Clouds
  • Clear skies
Temperature Dewpoint
-4°C / 25°F -7°C / 19°F
Humidity Altimeter Pressure
80% 30.38" Hg 1029 hPa